Terminal Aerodrome Forecast
Issued by NWS

Home | Current Version | Previous Version | Graphics & Text | Print | Product List | Glossary On
Versions: 1 2 3 4 5 6 7 8 9 10 11 12 13 14 15 16 17 18
000
FTUS43 KTOP 241722
TAFFOE
TAF
KFOE 241722Z 2418/2518 17013KT P6SM VCSH BKN060 OVC110
     FM242100 16009KT P6SM VCTS BKN050CB
      TEMPO 2422/2502 VRB15G30KT 4SM TSRA BKN035CB
     FM250200 20006KT 6SM -TSRA BKN035CB
     FM251500 33008KT P6SM BKN050=

USA.gov is the U.S. government's official web portal to all federal, state and local government web resources and services.